Byromville, Georgia
Current Conditions -  °F | °C
As of 8:55 AM on Thursday 23 Oct 2014 (Local Time) from KACJ Reporting Station
Clear Clear  
Wind Chill: 44°   Ceiling: Unl
Heat Index: 46°   Visibility: 7mi
Dew Point: 45°   Wind: 6mph
Humidity: 93%   Direction: 50°NE
Pressure: 30.15"   Gusts: NA
Location:  32.2°N, 83.91°W
Report Text: KACJ 231255Z AUTO 05005KT 7SM CLR 08/07 A3015 RMK AO2
Loading
Personal Weather Stations






























Interactive Weather Map
Tropical Storm Tracking
New forecast layout! Learn more

10-Day Weather Forecast

Advertisements
Track Severe Weather on mobile